createdAt,value
2022-08-13T00:01:15.127Z,1.83
2022-08-13T00:06:36.705Z,1.80
2022-08-13T00:12:00.683Z,1.83
2022-08-13T00:17:23.686Z,2.13
2022-08-13T00:23:02.027Z,1.70
2022-08-13T00:28:22.262Z,1.43
2022-08-13T00:33:44.635Z,1.70
2022-08-13T00:39:08.105Z,1.80
2022-08-13T00:44:28.175Z,1.33
2022-08-13T00:50:00.313Z,1.80
2022-08-13T00:55:24.053Z,1.83
2022-08-13T01:00:45.398Z,2.00
2022-08-13T01:06:05.501Z,1.40
2022-08-13T01:11:25.543Z,1.73
2022-08-13T01:16:45.646Z,1.90
2022-08-13T01:22:07.863Z,2.03
2022-08-13T01:27:33.647Z,1.77
2022-08-13T01:32:55.735Z,1.57
2022-08-13T01:38:22.628Z,1.40
2022-08-13T01:43:43.029Z,1.83
2022-08-13T01:49:03.196Z,1.70
2022-08-13T01:54:35.362Z,1.67
2022-08-13T02:00:03.447Z,1.60
2022-08-13T02:06:24.113Z,1.53
2022-08-13T02:11:06.586Z,1.73
2022-08-13T02:16:28.391Z,1.60
2022-08-13T02:21:49.547Z,1.77
2022-08-13T02:27:09.594Z,1.57
2022-08-13T02:32:33.242Z,1.40
2022-08-13T02:37:57.299Z,1.50
2022-08-13T02:43:18.403Z,1.77
2022-08-13T02:48:38.442Z,1.57
2022-08-13T02:54:00.200Z,1.60
2022-08-13T03:00:02.601Z,1.83
2022-08-13T03:05:00.628Z,1.50
2022-08-13T03:10:34.370Z,1.60
2022-08-13T03:16:02.301Z,1.30
2022-08-13T03:21:42.474Z,1.90
2022-08-13T03:27:03.873Z,1.53
2022-08-13T03:32:31.213Z,1.60
2022-08-13T03:37:51.914Z,1.60
2022-08-13T03:43:15.774Z,1.57
2022-08-13T03:48:36.428Z,1.93
2022-08-13T03:53:57.004Z,1.60
2022-08-13T03:59:17.093Z,1.47
2022-08-13T04:04:39.763Z,1.70
2022-08-13T04:10:01.061Z,1.60
2022-08-13T04:15:24.659Z,1.70
2022-08-13T04:20:47.127Z,1.40
2022-08-13T04:26:07.727Z,1.57
2022-08-13T04:31:46.725Z,1.57
2022-08-13T04:37:09.639Z,1.63
2022-08-13T04:42:48.624Z,1.80
2022-08-13T04:48:10.856Z,1.43
2022-08-13T04:53:31.814Z,1.63
2022-08-13T04:58:51.727Z,1.67
2022-08-13T05:04:23.337Z,1.70
2022-08-13T05:09:49.437Z,1.40
2022-08-13T05:15:33.640Z,1.60
2022-08-13T05:20:53.989Z,1.50
2022-08-13T05:26:31.559Z,1.43
2022-08-13T05:31:56.772Z,1.83
2022-08-13T05:38:12.965Z,1.70
2022-08-13T05:42:58.027Z,1.60
2022-08-13T05:48:18.173Z,1.60
2022-08-13T05:56:06.500Z,1.50
2022-08-13T05:59:21.188Z,1.60
2022-08-13T06:04:41.476Z,1.50
2022-08-13T06:10:01.491Z,1.63
2022-08-13T06:15:21.635Z,1.70
2022-08-13T06:20:57.679Z,1.40
2022-08-13T06:26:18.588Z,1.60
2022-08-13T06:31:47.135Z,1.70
2022-08-13T06:37:07.495Z,1.30
2022-08-13T06:42:29.722Z,1.30
2022-08-13T06:47:49.822Z,1.57
2022-08-13T06:54:26.185Z,1.63
2022-08-13T06:58:55.968Z,1.33
2022-08-13T07:04:29.035Z,1.50
2022-08-13T07:09:49.994Z,1.53
2022-08-13T07:15:17.176Z,2.00
2022-08-13T07:20:44.811Z,1.20
2022-08-13T07:26:10.862Z,1.70
2022-08-13T07:31:59.848Z,1.30
2022-08-13T07:37:11.349Z,1.60
2022-08-13T07:42:34.015Z,1.57
2022-08-13T07:48:27.402Z,1.67
2022-08-13T07:53:54.243Z,1.77
2022-08-13T07:59:16.013Z,1.77
2022-08-13T08:04:50.745Z,1.40
2022-08-13T08:10:14.174Z,1.50
2022-08-13T08:16:03.171Z,1.87
2022-08-13T08:21:48.376Z,1.40
2022-08-13T08:26:58.483Z,1.40
2022-08-13T08:32:22.672Z,1.60
2022-08-13T08:37:58.733Z,1.70
2022-08-13T08:43:22.173Z,2.50
2022-08-13T08:48:42.834Z,1.93
2022-08-13T08:54:25.868Z,2.00
2022-08-13T08:59:52.530Z,2.37
2022-08-13T09:05:16.919Z,2.10
2022-08-13T09:10:40.328Z,2.17
2022-08-13T09:16:01.044Z,2.30
2022-08-13T09:21:26.648Z,2.07
2022-08-13T09:26:58.651Z,2.13
2022-08-13T09:32:32.143Z,3.00
2022-08-13T09:37:55.484Z,1.83
2022-08-13T09:43:15.717Z,2.07
2022-08-13T09:48:56.206Z,2.37
2022-08-13T09:54:19.292Z,2.77
2022-08-13T09:59:40.556Z,2.73
2022-08-13T10:05:07.003Z,2.50
2022-08-13T10:10:32.187Z,2.70
2022-08-13T10:15:52.898Z,2.60
2022-08-13T10:21:20.165Z,2.10
2022-08-13T10:26:41.246Z,2.37
2022-08-13T10:32:01.563Z,2.50
2022-08-13T10:37:23.700Z,2.37
2022-08-13T10:42:43.975Z,11.03
2022-08-13T10:48:04.223Z,10.97
2022-08-13T10:53:24.412Z,3.40
2022-08-13T10:58:53.163Z,5.83
2022-08-13T11:04:13.337Z,5.77
2022-08-13T11:09:37.493Z,11.50
2022-08-13T11:14:58.255Z,10.63
2022-08-13T11:20:19.678Z,6.70
2022-08-13T11:25:56.703Z,5.50
2022-08-13T11:31:20.409Z,4.40
2022-08-13T11:37:00.837Z,2.70
2022-08-13T11:42:20.739Z,2.60
2022-08-13T11:47:46.298Z,1.97
2022-08-13T11:53:09.037Z,2.07
2022-08-13T11:58:46.957Z,2.40
2022-08-13T12:04:18.104Z,1.93
2022-08-13T12:09:45.619Z,2.50
2022-08-13T12:15:08.652Z,2.23
2022-08-13T12:20:29.886Z,2.10
2022-08-13T12:26:02.763Z,1.87
2022-08-13T12:31:25.064Z,2.30
2022-08-13T12:36:45.406Z,2.00
2022-08-13T12:42:06.052Z,2.80
2022-08-13T12:47:26.046Z,2.03
2022-08-13T12:52:47.618Z,2.20
2022-08-13T12:58:09.866Z,2.60
2022-08-13T13:03:35.611Z,2.47
2022-08-13T13:08:58.066Z,2.37
2022-08-13T13:14:37.669Z,2.70
2022-08-13T13:20:06.523Z,2.90
2022-08-13T13:25:26.785Z,2.90
2022-08-13T13:30:46.878Z,2.60
2022-08-13T13:36:26.564Z,2.30
2022-08-13T13:41:54.562Z,3.07
2022-08-13T13:47:15.421Z,2.40
2022-08-13T13:52:36.447Z,2.50
2022-08-13T13:57:56.560Z,2.70
2022-08-13T14:03:18.758Z,2.70
2022-08-13T14:08:48.026Z,2.50
2022-08-13T14:14:11.485Z,2.57
2022-08-13T14:25:11.617Z,2.93
2022-08-13T14:30:31.830Z,2.60
2022-08-13T14:35:52.912Z,2.50
2022-08-13T14:41:16.613Z,3.03
2022-08-13T14:46:38.282Z,3.10
2022-08-13T14:52:04.607Z,2.80
2022-08-13T14:57:40.943Z,2.80
2022-08-13T15:03:16.543Z,3.20
2022-08-13T15:08:37.190Z,2.80
2022-08-13T15:13:58.338Z,2.90
2022-08-13T15:19:19.056Z,3.10
2022-08-13T15:24:52.199Z,3.40
2022-08-13T15:30:15.726Z,3.43
2022-08-13T15:35:36.702Z,3.43
2022-08-13T15:40:57.010Z,2.83
2022-08-13T15:46:17.520Z,3.47
2022-08-13T15:51:57.697Z,3.13
2022-08-13T15:57:17.860Z,3.53
2022-08-13T16:02:48.743Z,3.20
2022-08-13T16:08:32.173Z,3.70
2022-08-13T16:13:52.619Z,5.10
2022-08-13T16:19:39.777Z,4.20
2022-08-13T16:24:52.577Z,5.03
2022-08-13T16:30:12.706Z,4.07
2022-08-13T16:35:39.477Z,3.53
2022-08-13T16:41:00.158Z,4.10
2022-08-13T16:46:20.256Z,3.37
2022-08-13T16:51:51.464Z,3.07
2022-08-13T16:57:12.248Z,4.70
2022-08-13T17:02:32.903Z,4.40
2022-08-13T17:07:53.474Z,4.40
2022-08-13T17:13:13.302Z,5.77
2022-08-13T17:18:34.624Z,6.30
2022-08-13T17:24:01.206Z,4.80
2022-08-13T17:29:22.478Z,4.00
2022-08-13T17:34:43.874Z,3.90
2022-08-13T17:40:04.018Z,4.20
2022-08-13T17:45:29.123Z,4.47
2022-08-13T17:50:53.347Z,4.23
2022-08-13T17:56:19.148Z,4.70
2022-08-13T18:01:39.267Z,4.20
2022-08-13T18:06:59.454Z,4.60
2022-08-13T18:12:32.998Z,4.40
2022-08-13T18:18:37.629Z,4.97
2022-08-13T18:23:34.770Z,4.40
2022-08-13T18:28:55.210Z,4.27
2022-08-13T18:34:18.169Z,4.50
2022-08-13T18:39:44.373Z,4.00
2022-08-13T18:45:04.663Z,4.17
2022-08-13T18:50:38.020Z,4.40
2022-08-13T18:56:04.927Z,3.83
2022-08-13T19:01:26.814Z,3.80
2022-08-13T19:06:51.115Z,3.90
2022-08-13T19:12:11.481Z,3.90
2022-08-13T19:17:42.596Z,3.97
2022-08-13T19:23:17.876Z,3.77
2022-08-13T19:28:56.740Z,3.53
2022-08-13T19:34:29.824Z,3.87
2022-08-13T19:39:59.105Z,4.40
2022-08-13T19:45:27.814Z,3.13
2022-08-13T19:50:53.728Z,4.00
2022-08-13T19:56:15.091Z,3.90
2022-08-13T20:01:35.405Z,4.50
2022-08-13T20:06:55.398Z,4.10
2022-08-13T20:12:15.490Z,3.97
2022-08-13T20:17:56.305Z,4.47
2022-08-13T20:23:17.368Z,4.07
2022-08-13T20:28:39.098Z,3.57
2022-08-13T20:33:59.125Z,3.50
2022-08-13T20:39:46.759Z,3.70
2022-08-13T20:45:05.968Z,3.60
2022-08-13T20:50:26.054Z,3.80
2022-08-13T20:55:46.172Z,3.60
2022-08-13T21:01:16.016Z,3.70
2022-08-13T21:06:40.123Z,3.63
2022-08-13T21:12:10.177Z,3.30
2022-08-13T21:17:37.557Z,3.53
2022-08-13T21:23:11.054Z,3.83
2022-08-13T21:28:35.594Z,3.80
2022-08-13T21:34:11.680Z,3.47
2022-08-13T21:39:36.381Z,3.30
2022-08-13T21:44:56.902Z,3.60
2022-08-13T21:50:18.056Z,3.20
2022-08-13T21:55:38.275Z,3.57
2022-08-13T22:00:58.488Z,3.00
2022-08-13T22:06:18.660Z,4.27
2022-08-13T22:11:41.248Z,3.63
2022-08-13T22:17:01.576Z,3.30
2022-08-13T22:22:23.387Z,3.67
2022-08-13T22:27:45.000Z,3.73
2022-08-13T22:33:05.230Z,3.10
2022-08-13T22:38:36.031Z,3.40
2022-08-13T22:43:57.965Z,3.77
2022-08-13T22:49:18.095Z,3.53
2022-08-13T22:54:39.364Z,3.60
2022-08-13T22:59:59.419Z,3.43
2022-08-13T23:05:19.581Z,3.47
2022-08-13T23:10:39.739Z,3.60
2022-08-13T23:16:06.601Z,3.77
2022-08-13T23:21:40.918Z,3.23
2022-08-13T23:27:03.227Z,2.97
2022-08-13T23:32:28.850Z,3.20
2022-08-13T23:37:49.751Z,3.67
2022-08-13T23:43:09.937Z,3.40
2022-08-13T23:48:32.455Z,2.83
2022-08-13T23:53:54.387Z,2.73
2022-08-13T23:59:18.072Z,3.40
